sensor_id;sensor_type;location;lat;lon;timestamp;temperature;humidity
26053;DHT22;13826;51.186;4.450;2023-04-25T00:01:22;9.90;81.20
26053;DHT22;13826;51.186;4.450;2023-04-25T00:03:48;9.90;81.40
26053;DHT22;13826;51.186;4.450;2023-04-25T00:06:13;9.90;82.10
26053;DHT22;13826;51.186;4.450;2023-04-25T00:08:39;9.90;81.40
26053;DHT22;13826;51.186;4.450;2023-04-25T00:11:05;9.70;76.30
26053;DHT22;13826;51.186;4.450;2023-04-25T00:13:31;9.70;82.50
26053;DHT22;13826;51.186;4.450;2023-04-25T00:15:56;9.70;85.30
26053;DHT22;13826;51.186;4.450;2023-04-25T00:18:23;9.80;81.00
26053;DHT22;13826;51.186;4.450;2023-04-25T00:20:49;9.70;83.30
26053;DHT22;13826;51.186;4.450;2023-04-25T00:23:15;9.70;81.30
26053;DHT22;13826;51.186;4.450;2023-04-25T00:25:45;9.70;83.20
26053;DHT22;13826;51.186;4.450;2023-04-25T00:28:11;9.60;85.70
26053;DHT22;13826;51.186;4.450;2023-04-25T00:30:37;9.50;88.00
26053;DHT22;13826;51.186;4.450;2023-04-25T00:33:03;9.50;90.50
26053;DHT22;13826;51.186;4.450;2023-04-25T00:35:28;9.50;88.40
26053;DHT22;13826;51.186;4.450;2023-04-25T00:37:54;9.50;90.10
26053;DHT22;13826;51.186;4.450;2023-04-25T00:40:20;9.60;88.90
26053;DHT22;13826;51.186;4.450;2023-04-25T00:42:45;9.60;89.50
26053;DHT22;13826;51.186;4.450;2023-04-25T00:45:12;9.70;88.50
26053;DHT22;13826;51.186;4.450;2023-04-25T00:47:38;9.70;88.60
26053;DHT22;13826;51.186;4.450;2023-04-25T00:50:05;9.70;89.20
26053;DHT22;13826;51.186;4.450;2023-04-25T00:52:31;9.70;89.00
26053;DHT22;13826;51.186;4.450;2023-04-25T00:54:57;9.70;89.50
26053;DHT22;13826;51.186;4.450;2023-04-25T00:57:22;9.80;89.30
26053;DHT22;13826;51.186;4.450;2023-04-25T00:59:48;9.60;90.50
26053;DHT22;13826;51.186;4.450;2023-04-25T01:02:16;9.40;92.20
26053;DHT22;13826;51.186;4.450;2023-04-25T01:04:41;9.60;93.20
26053;DHT22;13826;51.186;4.450;2023-04-25T01:07:07;9.70;91.40
26053;DHT22;13826;51.186;4.450;2023-04-25T01:09:33;9.80;88.00
26053;DHT22;13826;51.186;4.450;2023-04-25T01:11:59;9.70;87.30
26053;DHT22;13826;51.186;4.450;2023-04-25T01:14:25;9.60;85.70
26053;DHT22;13826;51.186;4.450;2023-04-25T01:16:51;9.50;80.60
26053;DHT22;13826;51.186;4.450;2023-04-25T01:19:18;9.40;80.80
26053;DHT22;13826;51.186;4.450;2023-04-25T01:21:44;9.40;84.90
26053;DHT22;13826;51.186;4.450;2023-04-25T01:24:10;9.40;85.40
26053;DHT22;13826;51.186;4.450;2023-04-25T01:26:36;9.40;84.20
26053;DHT22;13826;51.186;4.450;2023-04-25T01:29:03;9.40;86.50
26053;DHT22;13826;51.186;4.450;2023-04-25T01:31:29;9.40;86.40
26053;DHT22;13826;51.186;4.450;2023-04-25T01:33:55;9.40;87.50
26053;DHT22;13826;51.186;4.450;2023-04-25T01:36:20;9.40;86.40
26053;DHT22;13826;51.186;4.450;2023-04-25T01:38:46;9.40;82.30
26053;DHT22;13826;51.186;4.450;2023-04-25T01:41:13;9.40;78.40
26053;DHT22;13826;51.186;4.450;2023-04-25T01:43:39;9.50;77.70
26053;DHT22;13826;51.186;4.450;2023-04-25T01:46:04;9.40;75.90
26053;DHT22;13826;51.186;4.450;2023-04-25T01:48:30;9.50;80.40
26053;DHT22;13826;51.186;4.450;2023-04-25T01:50:55;9.60;80.30
26053;DHT22;13826;51.186;4.450;2023-04-25T01:53:21;9.80;78.40
26053;DHT22;13826;51.186;4.450;2023-04-25T01:55:47;9.80;70.40
26053;DHT22;13826;51.186;4.450;2023-04-25T01:58:13;9.90;71.00
26053;DHT22;13826;51.186;4.450;2023-04-25T02:00:39;9.80;73.40
26053;DHT22;13826;51.186;4.450;2023-04-25T02:03:06;9.70;75.40
26053;DHT22;13826;51.186;4.450;2023-04-25T02:05:38;9.60;75.10
26053;DHT22;13826;51.186;4.450;2023-04-25T02:08:04;9.60;73.00
26053;DHT22;13826;51.186;4.450;2023-04-25T02:10:30;9.50;78.50
26053;DHT22;13826;51.186;4.450;2023-04-25T02:12:56;9.40;78.00
26053;DHT22;13826;51.186;4.450;2023-04-25T02:15:22;9.50;81.60
26053;DHT22;13826;51.186;4.450;2023-04-25T02:17:47;9.50;80.10
26053;DHT22;13826;51.186;4.450;2023-04-25T02:20:14;9.50;85.10
26053;DHT22;13826;51.186;4.450;2023-04-25T02:22:41;9.50;89.90
26053;DHT22;13826;51.186;4.450;2023-04-25T02:25:07;9.50;92.00
26053;DHT22;13826;51.186;4.450;2023-04-25T02:27:33;9.20;99.80
26053;DHT22;13826;51.186;4.450;2023-04-25T02:29:58;9.20;99.90
26053;DHT22;13826;51.186;4.450;2023-04-25T02:32:24;9.00;99.90
26053;DHT22;13826;51.186;4.450;2023-04-25T02:34:49;8.70;99.90
26053;DHT22;13826;51.186;4.450;2023-04-25T02:37:15;8.60;99.90
26053;DHT22;13826;51.186;4.450;2023-04-25T02:39:41;8.50;99.90
26053;DHT22;13826;51.186;4.450;2023-04-25T02:42:06;8.70;99.90
26053;DHT22;13826;51.186;4.450;2023-04-25T02:44:32;8.90;99.90
26053;DHT22;13826;51.186;4.450;2023-04-25T02:46:57;9.00;99.90
26053;DHT22;13826;51.186;4.450;2023-04-25T02:49:23;9.00;99.90
26053;DHT22;13826;51.186;4.450;2023-04-25T02:51:48;9.10;99.90
26053;DHT22;13826;51.186;4.450;2023-04-25T02:54:14;9.20;99.90
26053;DHT22;13826;51.186;4.450;2023-04-25T02:56:39;9.20;99.90
26053;DHT22;13826;51.186;4.450;2023-04-25T02:59:05;9.30;99.90
26053;DHT22;13826;51.186;4.450;2023-04-25T03:01:31;9.40;99.90
26053;DHT22;13826;51.186;4.450;2023-04-25T03:03:56;9.30;99.90
26053;DHT22;13826;51.186;4.450;2023-04-25T03:06:22;9.30;99.90
26053;DHT22;13826;51.186;4.450;2023-04-25T03:08:47;9.30;99.90
26053;DHT22;13826;51.186;4.450;2023-04-25T03:11:13;9.20;99.90
26053;DHT22;13826;51.186;4.450;2023-04-25T03:13:38;9.30;99.90
26053;DHT22;13826;51.186;4.450;2023-04-25T03:16:04;9.40;99.90
26053;DHT22;13826;51.186;4.450;2023-04-25T03:18:29;9.60;99.90
26053;DHT22;13826;51.186;4.450;2023-04-25T03:20:55;9.50;99.90
26053;DHT22;13826;51.186;4.450;2023-04-25T03:23:21;9.50;99.90
26053;DHT22;13826;51.186;4.450;2023-04-25T03:25:46;9.60;99.90
26053;DHT22;13826;51.186;4.450;2023-04-25T03:28:12;9.60;99.90
26053;DHT22;13826;51.186;4.450;2023-04-25T03:30:38;9.60;99.90
26053;DHT22;13826;51.186;4.450;2023-04-25T03:33:03;9.50;99.90
26053;DHT22;13826;51.186;4.450;2023-04-25T03:35:29;9.40;99.90
26053;DHT22;13826;51.186;4.450;2023-04-25T03:37:54;9.10;99.90
26053;DHT22;13826;51.186;4.450;2023-04-25T03:40:20;9.10;99.90
26053;DHT22;13826;51.186;4.450;2023-04-25T03:42:46;8.80;99.90
26053;DHT22;13826;51.186;4.450;2023-04-25T03:45:11;8.90;99.90
26053;DHT22;13826;51.186;4.450;2023-04-25T03:47:37;8.90;99.90
26053;DHT22;13826;51.186;4.450;2023-04-25T03:50:02;9.10;99.90
26053;DHT22;13826;51.186;4.450;2023-04-25T03:52:28;9.10;99.90
26053;DHT22;13826;51.186;4.450;2023-04-25T03:54:53;9.20;99.90
26053;DHT22;13826;51.186;4.450;2023-04-25T03:57:19;9.10;99.90
26053;DHT22;13826;51.186;4.450;2023-04-25T03:59:45;9.10;99.90
26053;DHT22;13826;51.186;4.450;2023-04-25T04:02:10;8.90;99.50
26053;DHT22;13826;51.186;4.450;2023-04-25T04:04:36;8.80;99.90
26053;DHT22;13826;51.186;4.450;2023-04-25T04:07:02;8.80;99.90
26053;DHT22;13826;51.186;4.450;2023-04-25T04:09:28;8.90;99.90
26053;DHT22;13826;51.186;4.450;2023-04-25T04:11:53;8.70;99.90
26053;DHT22;13826;51.186;4.450;2023-04-25T04:14:19;8.50;99.90
26053;DHT22;13826;51.186;4.450;2023-04-25T04:16:44;8.30;99.90
26053;DHT22;13826;51.186;4.450;2023-04-25T04:19:10;8.30;99.90
26053;DHT22;13826;51.186;4.450;2023-04-25T04:21:36;8.30;99.90
26053;DHT22;13826;51.186;4.450;2023-04-25T04:24:01;8.20;99.90
26053;DHT22;13826;51.186;4.450;2023-04-25T04:26:27;8.20;97.10
26053;DHT22;13826;51.186;4.450;2023-04-25T04:28:53;8.30;95.30
26053;DHT22;13826;51.186;4.450;2023-04-25T04:31:20;8.40;95.40
26053;DHT22;13826;51.186;4.450;2023-04-25T04:33:46;8.40;94.70
26053;DHT22;13826;51.186;4.450;2023-04-25T04:36:12;8.50;93.00
26053;DHT22;13826;51.186;4.450;2023-04-25T04:38:38;8.60;90.30
26053;DHT22;13826;51.186;4.450;2023-04-25T04:41:03;8.70;84.30
26053;DHT22;13826;51.186;4.450;2023-04-25T04:43:29;8.70;79.00
26053;DHT22;13826;51.186;4.450;2023-04-25T04:45:55;8.80;80.40
26053;DHT22;13826;51.186;4.450;2023-04-25T04:48:23;8.80;79.90
26053;DHT22;13826;51.186;4.450;2023-04-25T04:50:49;8.90;83.80
26053;DHT22;13826;51.186;4.450;2023-04-25T04:53:15;9.00;80.50
26053;DHT22;13826;51.186;4.450;2023-04-25T04:55:41;9.00;79.70
26053;DHT22;13826;51.186;4.450;2023-04-25T04:58:06;9.00;84.60
26053;DHT22;13826;51.186;4.450;2023-04-25T05:00:32;9.10;72.60
26053;DHT22;13826;51.186;4.450;2023-04-25T05:02:58;8.90;65.80
26053;DHT22;13826;51.186;4.450;2023-04-25T05:05:24;8.90;62.90
26053;DHT22;13826;51.186;4.450;2023-04-25T05:07:50;8.90;64.60
26053;DHT22;13826;51.186;4.450;2023-04-25T05:10:16;8.80;73.50
26053;DHT22;13826;51.186;4.450;2023-04-25T05:12:42;8.90;77.70
26053;DHT22;13826;51.186;4.450;2023-04-25T05:15:07;9.00;78.60
26053;DHT22;13826;51.186;4.450;2023-04-25T05:17:33;8.90;72.40
26053;DHT22;13826;51.186;4.450;2023-04-25T05:19:59;9.00;74.20
26053;DHT22;13826;51.186;4.450;2023-04-25T05:22:24;9.00;75.60
26053;DHT22;13826;51.186;4.450;2023-04-25T05:24:50;9.10;75.30
26053;DHT22;13826;51.186;4.450;2023-04-25T05:27:17;9.10;72.50
26053;DHT22;13826;51.186;4.450;2023-04-25T05:29:42;9.20;73.60
26053;DHT22;13826;51.186;4.450;2023-04-25T05:32:08;9.30;71.00
26053;DHT22;13826;51.186;4.450;2023-04-25T05:34:34;9.40;60.30
26053;DHT22;13826;51.186;4.450;2023-04-25T05:37:00;9.40;59.40
26053;DHT22;13826;51.186;4.450;2023-04-25T05:39:26;9.40;55.40
26053;DHT22;13826;51.186;4.450;2023-04-25T05:41:52;9.30;60.70
26053;DHT22;13826;51.186;4.450;2023-04-25T05:44:17;9.30;65.90
26053;DHT22;13826;51.186;4.450;2023-04-25T05:46:43;9.20;65.40
26053;DHT22;13826;51.186;4.450;2023-04-25T05:49:09;9.20;72.00
26053;DHT22;13826;51.186;4.450;2023-04-25T05:51:34;9.20;81.60
26053;DHT22;13826;51.186;4.450;2023-04-25T05:54:09;9.30;79.80
26053;DHT22;13826;51.186;4.450;2023-04-25T05:57:08;9.20;69.90
26053;DHT22;13826;51.186;4.450;2023-04-25T05:59:45;9.60;72.90
26053;DHT22;13826;51.186;4.450;2023-04-25T06:02:19;9.80;58.60
26053;DHT22;13826;51.186;4.450;2023-04-25T06:04:46;9.80;53.10
26053;DHT22;13826;51.186;4.450;2023-04-25T06:07:12;10.00;36.00
26053;DHT22;13826;51.186;4.450;2023-04-25T06:09:38;10.00;17.70
26053;DHT22;13826;51.186;4.450;2023-04-25T06:12:05;10.00;22.30
26053;DHT22;13826;51.186;4.450;2023-04-25T06:14:30;10.20;21.80
26053;DHT22;13826;51.186;4.450;2023-04-25T06:16:56;10.20;1.00
26053;DHT22;13826;51.186;4.450;2023-04-25T06:19:22;10.00;1.00
26053;DHT22;13826;51.186;4.450;2023-04-25T06:21:47;10.20;1.00
26053;DHT22;13826;51.186;4.450;2023-04-25T06:24:13;10.40;1.00
26053;DHT22;13826;51.186;4.450;2023-04-25T06:26:39;10.50;1.00
26053;DHT22;13826;51.186;4.450;2023-04-25T06:29:04;10.50;1.00
26053;DHT22;13826;51.186;4.450;2023-04-25T06:31:30;10.30;1.00
26053;DHT22;13826;51.186;4.450;2023-04-25T06:33:58;10.20;1.00
26053;DHT22;13826;51.186;4.450;2023-04-25T06:36:23;10.10;1.00
26053;DHT22;13826;51.186;4.450;2023-04-25T06:38:50;10.60;1.00
26053;DHT22;13826;51.186;4.450;2023-04-25T06:41:16;11.10;1.00
26053;DHT22;13826;51.186;4.450;2023-04-25T06:43:41;11.00;1.00
26053;DHT22;13826;51.186;4.450;2023-04-25T06:46:07;11.10;1.00
26053;DHT22;13826;51.186;4.450;2023-04-25T06:48:32;10.90;1.00
26053;DHT22;13826;51.186;4.450;2023-04-25T06:50:58;10.70;1.00
26053;DHT22;13826;51.186;4.450;2023-04-25T06:53:24;10.50;1.00
26053;DHT22;13826;51.186;4.450;2023-04-25T06:55:49;10.40;1.00
26053;DHT22;13826;51.186;4.450;2023-04-25T06:58:15;10.30;1.00
26053;DHT22;13826;51.186;4.450;2023-04-25T07:00:41;10.30;1.00
26053;DHT22;13826;51.186;4.450;2023-04-25T07:03:07;10.20;1.00
26053;DHT22;13826;51.186;4.450;2023-04-25T07:05:32;10.20;1.00
26053;DHT22;13826;51.186;4.450;2023-04-25T07:07:58;10.40;1.00
26053;DHT22;13826;51.186;4.450;2023-04-25T07:10:23;10.50;1.00
26053;DHT22;13826;51.186;4.450;2023-04-25T07:12:50;10.50;1.00
26053;DHT22;13826;51.186;4.450;2023-04-25T07:15:16;10.70;1.00
26053;DHT22;13826;51.186;4.450;2023-04-25T07:17:41;10.80;1.00
26053;DHT22;13826;51.186;4.450;2023-04-25T07:20:07;10.80;1.00
26053;DHT22;13826;51.186;4.450;2023-04-25T07:22:34;10.70;1.00
26053;DHT22;13826;51.186;4.450;2023-04-25T07:25:00;10.70;1.00
26053;DHT22;13826;51.186;4.450;2023-04-25T07:27:25;10.80;1.00
26053;DHT22;13826;51.186;4.450;2023-04-25T07:29:51;11.10;1.00
26053;DHT22;13826;51.186;4.450;2023-04-25T07:32:17;11.40;1.00
26053;DHT22;13826;51.186;4.450;2023-04-25T07:34:42;11.60;1.00
26053;DHT22;13826;51.186;4.450;2023-04-25T07:37:08;11.70;1.00
26053;DHT22;13826;51.186;4.450;2023-04-25T07:39:33;13.30;1.00
26053;DHT22;13826;51.186;4.450;2023-04-25T07:42:00;16.70;99.90
26053;DHT22;13826;51.186;4.450;2023-04-25T07:44:27;19.00;1.00
26053;DHT22;13826;51.186;4.450;2023-04-25T07:46:53;19.90;99.90
26053;DHT22;13826;51.186;4.450;2023-04-25T07:49:18;19.80;1.00
26053;DHT22;13826;51.186;4.450;2023-04-25T07:51:44;20.10;1.00
26053;DHT22;13826;51.186;4.450;2023-04-25T07:54:12;20.00;1.00
26053;DHT22;13826;51.186;4.450;2023-04-25T07:56:37;20.30;1.00
26053;DHT22;13826;51.186;4.450;2023-04-25T07:59:03;21.90;1.00
26053;DHT22;13826;51.186;4.450;2023-04-25T08:01:29;22.70;1.00
26053;DHT22;13826;51.186;4.450;2023-04-25T08:03:54;23.80;99.90
26053;DHT22;13826;51.186;4.450;2023-04-25T08:06:20;22.90;99.90
26053;DHT22;13826;51.186;4.450;2023-04-25T08:08:45;23.50;99.90
26053;DHT22;13826;51.186;4.450;2023-04-25T08:11:11;22.10;99.90
26053;DHT22;13826;51.186;4.450;2023-04-25T08:13:37;20.40;99.90
26053;DHT22;13826;51.186;4.450;2023-04-25T08:16:02;17.90;1.00
26053;DHT22;13826;51.186;4.450;2023-04-25T08:18:28;16.40;1.00
26053;DHT22;13826;51.186;4.450;2023-04-25T08:20:53;15.00;99.90
26053;DHT22;13826;51.186;4.450;2023-04-25T08:23:19;13.80;99.90
26053;DHT22;13826;51.186;4.450;2023-04-25T08:25:44;13.20;42.60
26053;DHT22;13826;51.186;4.450;2023-04-25T08:28:10;12.80;1.00
26053;DHT22;13826;51.186;4.450;2023-04-25T08:30:36;12.90;1.00
26053;DHT22;13826;51.186;4.450;2023-04-25T08:33:01;15.20;99.90
26053;DHT22;13826;51.186;4.450;2023-04-25T08:35:27;18.50;99.90
26053;DHT22;13826;51.186;4.450;2023-04-25T08:37:52;20.30;1.00
26053;DHT22;13826;51.186;4.450;2023-04-25T08:40:18;20.00;1.00
26053;DHT22;13826;51.186;4.450;2023-04-25T08:42:44;20.70;1.00
26053;DHT22;13826;51.186;4.450;2023-04-25T08:45:11;22.80;1.00
26053;DHT22;13826;51.186;4.450;2023-04-25T08:47:37;23.40;99.90
26053;DHT22;13826;51.186;4.450;2023-04-25T08:50:03;22.90;99.90
26053;DHT22;13826;51.186;4.450;2023-04-25T08:52:32;23.30;99.90
26053;DHT22;13826;51.186;4.450;2023-04-25T08:54:58;22.90;99.90
26053;DHT22;13826;51.186;4.450;2023-04-25T08:57:26;23.70;99.90
26053;DHT22;13826;51.186;4.450;2023-04-25T08:59:51;24.90;99.90
26053;DHT22;13826;51.186;4.450;2023-04-25T09:02:18;26.10;99.90
26053;DHT22;13826;51.186;4.450;2023-04-25T09:04:45;27.10;99.90
26053;DHT22;13826;51.186;4.450;2023-04-25T09:07:11;27.30;99.90
26053;DHT22;13826;51.186;4.450;2023-04-25T09:09:37;25.60;99.90
26053;DHT22;13826;51.186;4.450;2023-04-25T09:12:05;24.20;99.90
26053;DHT22;13826;51.186;4.450;2023-04-25T09:14:30;24.00;99.90
26053;DHT22;13826;51.186;4.450;2023-04-25T09:19:31;25.00;99.90
26053;DHT22;13826;51.186;4.450;2023-04-25T09:21:58;24.00;99.90
26053;DHT22;13826;51.186;4.450;2023-04-25T09:27:08;20.60;99.90
26053;DHT22;13826;51.186;4.450;2023-04-25T09:29:35;19.10;99.90
26053;DHT22;13826;51.186;4.450;2023-04-25T09:32:11;18.40;99.90
26053;DHT22;13826;51.186;4.450;2023-04-25T09:34:41;17.70;99.90
26053;DHT22;13826;51.186;4.450;2023-04-25T09:37:08;17.60;1.00
26053;DHT22;13826;51.186;4.450;2023-04-25T09:39:34;17.50;1.00
26053;DHT22;13826;51.186;4.450;2023-04-25T09:42:00;16.90;99.90
26053;DHT22;13826;51.186;4.450;2023-04-25T09:44:25;16.70;99.90
26053;DHT22;13826;51.186;4.450;2023-04-25T09:46:52;16.50;99.90
26053;DHT22;13826;51.186;4.450;2023-04-25T09:49:22;15.60;99.90
26053;DHT22;13826;51.186;4.450;2023-04-25T09:51:54;15.10;99.90
26053;DHT22;13826;51.186;4.450;2023-04-25T09:54:21;14.70;1.00
26053;DHT22;13826;51.186;4.450;2023-04-25T09:56:46;14.60;1.00
26053;DHT22;13826;51.186;4.450;2023-04-25T09:59:13;14.70;32.40
26053;DHT22;13826;51.186;4.450;2023-04-25T10:01:40;14.70;99.90
26053;DHT22;13826;51.186;4.450;2023-04-25T10:04:06;14.60;99.90
26053;DHT22;13826;51.186;4.450;2023-04-25T10:06:35;14.60;99.90
26053;DHT22;13826;51.186;4.450;2023-04-25T10:09:02;14.70;99.90
26053;DHT22;13826;51.186;4.450;2023-04-25T10:11:33;15.70;99.90
26053;DHT22;13826;51.186;4.450;2023-04-25T10:13:59;18.40;1.00
26053;DHT22;13826;51.186;4.450;2023-04-25T10:16:25;19.00;1.00
26053;DHT22;13826;51.186;4.450;2023-04-25T10:18:51;18.70;99.90
26053;DHT22;13826;51.186;4.450;2023-04-25T10:21:19;18.10;99.90
26053;DHT22;13826;51.186;4.450;2023-04-25T10:23:46;17.40;1.00
26053;DHT22;13826;51.186;4.450;2023-04-25T10:26:12;16.60;1.00
26053;DHT22;13826;51.186;4.450;2023-04-25T10:28:55;15.00;1.00
26053;DHT22;13826;51.186;4.450;2023-04-25T10:31:21;14.70;1.00
26053;DHT22;13826;51.186;4.450;2023-04-25T10:33:47;14.50;91.70
26053;DHT22;13826;51.186;4.450;2023-04-25T10:36:20;14.40;1.00
26053;DHT22;13826;51.186;4.450;2023-04-25T10:38:47;14.00;1.00
26053;DHT22;13826;51.186;4.450;2023-04-25T10:41:13;13.70;99.90
26053;DHT22;13826;51.186;4.450;2023-04-25T10:43:45;13.90;99.90
26053;DHT22;13826;51.186;4.450;2023-04-25T10:46:24;14.20;99.90
26053;DHT22;13826;51.186;4.450;2023-04-25T10:48:51;14.50;99.90
26053;DHT22;13826;51.186;4.450;2023-04-25T10:51:18;14.20;99.90
26053;DHT22;13826;51.186;4.450;2023-04-25T10:53:44;14.40;99.90
26053;DHT22;13826;51.186;4.450;2023-04-25T10:56:11;15.00;99.90
26053;DHT22;13826;51.186;4.450;2023-04-25T10:58:41;17.20;1.00
26053;DHT22;13826;51.186;4.450;2023-04-25T11:01:07;19.60;1.00
26053;DHT22;13826;51.186;4.450;2023-04-25T11:03:32;21.10;99.90
26053;DHT22;13826;51.186;4.450;2023-04-25T11:06:03;20.90;99.90
26053;DHT22;13826;51.186;4.450;2023-04-25T11:08:34;19.90;99.90
26053;DHT22;13826;51.186;4.450;2023-04-25T11:11:02;19.80;99.90
26053;DHT22;13826;51.186;4.450;2023-04-25T11:13:31;20.50;99.90
26053;DHT22;13826;51.186;4.450;2023-04-25T11:15:56;19.20;99.90
26053;DHT22;13826;51.186;4.450;2023-04-25T11:18:25;19.70;99.90
26053;DHT22;13826;51.186;4.450;2023-04-25T11:20:51;20.30;99.90
26053;DHT22;13826;51.186;4.450;2023-04-25T11:23:16;20.40;99.90
26053;DHT22;13826;51.186;4.450;2023-04-25T11:25:42;21.10;99.90
26053;DHT22;13826;51.186;4.450;2023-04-25T11:28:08;21.00;99.90
26053;DHT22;13826;51.186;4.450;2023-04-25T11:30:33;21.50;99.90
26053;DHT22;13826;51.186;4.450;2023-04-25T11:32:59;21.90;99.90
26053;DHT22;13826;51.186;4.450;2023-04-25T11:35:24;22.20;99.90
26053;DHT22;13826;51.186;4.450;2023-04-25T11:37:50;21.70;99.90
26053;DHT22;13826;51.186;4.450;2023-04-25T11:40:16;21.70;99.90
26053;DHT22;13826;51.186;4.450;2023-04-25T11:42:46;22.00;99.90
26053;DHT22;13826;51.186;4.450;2023-04-25T11:45:12;21.60;99.90
26053;DHT22;13826;51.186;4.450;2023-04-25T11:47:38;22.10;99.90
26053;DHT22;13826;51.186;4.450;2023-04-25T11:50:04;22.20;99.90
26053;DHT22;13826;51.186;4.450;2023-04-25T11:52:39;22.60;99.90
26053;DHT22;13826;51.186;4.450;2023-04-25T11:55:06;22.40;99.90
26053;DHT22;13826;51.186;4.450;2023-04-25T11:57:32;21.30;99.90
26053;DHT22;13826;51.186;4.450;2023-04-25T12:00:08;21.30;99.90
26053;DHT22;13826;51.186;4.450;2023-04-25T12:02:37;18.20;99.90
26053;DHT22;13826;51.186;4.450;2023-04-25T12:05:06;16.50;99.90
26053;DHT22;13826;51.186;4.450;2023-04-25T12:07:31;15.90;99.90
26053;DHT22;13826;51.186;4.450;2023-04-25T12:09:57;16.50;99.90
26053;DHT22;13826;51.186;4.450;2023-04-25T12:12:26;16.60;1.00
26053;DHT22;13826;51.186;4.450;2023-04-25T12:14:52;16.50;1.00
26053;DHT22;13826;51.186;4.450;2023-04-25T12:17:20;16.10;1.00
26053;DHT22;13826;51.186;4.450;2023-04-25T12:19:46;15.80;1.00
26053;DHT22;13826;51.186;4.450;2023-04-25T12:22:19;15.70;1.00
26053;DHT22;13826;51.186;4.450;2023-04-25T12:24:45;16.10;1.00
26053;DHT22;13826;51.186;4.450;2023-04-25T12:27:13;16.20;1.00
26053;DHT22;13826;51.186;4.450;2023-04-25T12:29:49;16.30;1.00
26053;DHT22;13826;51.186;4.450;2023-04-25T12:32:16;15.40;1.00
26053;DHT22;13826;51.186;4.450;2023-04-25T12:34:42;15.70;1.00
26053;DHT22;13826;51.186;4.450;2023-04-25T12:37:07;15.90;1.00
26053;DHT22;13826;51.186;4.450;2023-04-25T12:39:33;16.00;1.00
26053;DHT22;13826;51.186;4.450;2023-04-25T12:41:58;15.80;1.00
26053;DHT22;13826;51.186;4.450;2023-04-25T12:44:25;16.00;1.00
26053;DHT22;13826;51.186;4.450;2023-04-25T12:46:50;16.30;1.00
26053;DHT22;13826;51.186;4.450;2023-04-25T12:49:16;16.20;1.00
26053;DHT22;13826;51.186;4.450;2023-04-25T12:51:41;15.90;1.00
26053;DHT22;13826;51.186;4.450;2023-04-25T12:54:07;15.50;1.00
26053;DHT22;13826;51.186;4.450;2023-04-25T12:56:33;15.70;1.00
26053;DHT22;13826;51.186;4.450;2023-04-25T12:58:59;15.60;1.00
26053;DHT22;13826;51.186;4.450;2023-04-25T13:01:25;15.70;5.50
26053;DHT22;13826;51.186;4.450;2023-04-25T13:03:51;15.90;1.00
26053;DHT22;13826;51.186;4.450;2023-04-25T13:06:18;15.50;1.00
26053;DHT22;13826;51.186;4.450;2023-04-25T13:08:43;15.50;16.70
26053;DHT22;13826;51.186;4.450;2023-04-25T13:11:09;15.40;1.00
26053;DHT22;13826;51.186;4.450;2023-04-25T13:13:35;15.00;1.00
26053;DHT22;13826;51.186;4.450;2023-04-25T13:16:01;15.20;10.10
26053;DHT22;13826;51.186;4.450;2023-04-25T13:18:28;15.40;1.00
26053;DHT22;13826;51.186;4.450;2023-04-25T13:20:53;15.90;1.00
26053;DHT22;13826;51.186;4.450;2023-04-25T13:23:19;16.20;1.00
26053;DHT22;13826;51.186;4.450;2023-04-25T13:25:45;16.30;1.00
26053;DHT22;13826;51.186;4.450;2023-04-25T13:28:11;16.20;1.00
26053;DHT22;13826;51.186;4.450;2023-04-25T13:30:37;16.30;1.00
26053;DHT22;13826;51.186;4.450;2023-04-25T13:33:02;16.30;1.00
26053;DHT22;13826;51.186;4.450;2023-04-25T13:35:29;15.80;1.00
26053;DHT22;13826;51.186;4.450;2023-04-25T13:37:55;16.10;49.50
26053;DHT22;13826;51.186;4.450;2023-04-25T13:40:20;16.40;1.00
26053;DHT22;13826;51.186;4.450;2023-04-25T13:42:46;16.40;1.00
26053;DHT22;13826;51.186;4.450;2023-04-25T13:45:12;15.60;1.00
26053;DHT22;13826;51.186;4.450;2023-04-25T13:47:37;14.80;1.00
26053;DHT22;13826;51.186;4.450;2023-04-25T13:50:03;14.90;1.00
26053;DHT22;13826;51.186;4.450;2023-04-25T13:52:30;15.10;1.00
26053;DHT22;13826;51.186;4.450;2023-04-25T13:54:57;15.40;1.00
26053;DHT22;13826;51.186;4.450;2023-04-25T13:57:22;15.20;1.00
26053;DHT22;13826;51.186;4.450;2023-04-25T13:59:51;15.30;15.70
26053;DHT22;13826;51.186;4.450;2023-04-25T14:02:18;15.40;1.00
26053;DHT22;13826;51.186;4.450;2023-04-25T14:04:43;15.30;1.00
26053;DHT22;13826;51.186;4.450;2023-04-25T14:07:09;15.30;5.90
26053;DHT22;13826;51.186;4.450;2023-04-25T14:09:36;15.20;1.00
26053;DHT22;13826;51.186;4.450;2023-04-25T14:12:02;15.20;1.00
26053;DHT22;13826;51.186;4.450;2023-04-25T14:14:27;15.20;1.00
26053;DHT22;13826;51.186;4.450;2023-04-25T14:16:53;14.80;1.00
26053;DHT22;13826;51.186;4.450;2023-04-25T14:19:19;14.80;1.00
26053;DHT22;13826;51.186;4.450;2023-04-25T14:21:45;14.50;1.00
26053;DHT22;13826;51.186;4.450;2023-04-25T14:24:13;14.90;1.00
26053;DHT22;13826;51.186;4.450;2023-04-25T14:26:39;15.10;1.00
26053;DHT22;13826;51.186;4.450;2023-04-25T14:29:06;15.20;1.00
26053;DHT22;13826;51.186;4.450;2023-04-25T14:31:32;15.20;1.00
26053;DHT22;13826;51.186;4.450;2023-04-25T14:33:58;14.70;90.00
26053;DHT22;13826;51.186;4.450;2023-04-25T14:36:24;14.70;99.90
26053;DHT22;13826;51.186;4.450;2023-04-25T14:38:49;14.40;79.60
26053;DHT22;13826;51.186;4.450;2023-04-25T14:41:15;14.30;83.60
26053;DHT22;13826;51.186;4.450;2023-04-25T14:43:41;14.30;99.90
26053;DHT22;13826;51.186;4.450;2023-04-25T14:46:06;14.20;99.90
26053;DHT22;13826;51.186;4.450;2023-04-25T14:48:32;14.00;99.90
26053;DHT22;13826;51.186;4.450;2023-04-25T14:50:58;13.90;1.00
26053;DHT22;13826;51.186;4.450;2023-04-25T14:53:25;13.90;99.90
26053;DHT22;13826;51.186;4.450;2023-04-25T14:55:50;13.80;99.90
26053;DHT22;13826;51.186;4.450;2023-04-25T14:58:16;14.00;1.00
26053;DHT22;13826;51.186;4.450;2023-04-25T15:00:41;13.90;99.90
26053;DHT22;13826;51.186;4.450;2023-04-25T15:03:08;14.00;1.00
26053;DHT22;13826;51.186;4.450;2023-04-25T15:05:34;14.20;99.90
26053;DHT22;13826;51.186;4.450;2023-04-25T15:08:01;14.30;99.90
26053;DHT22;13826;51.186;4.450;2023-04-25T15:10:27;14.20;99.90
26053;DHT22;13826;51.186;4.450;2023-04-25T15:12:53;13.90;99.90
26053;DHT22;13826;51.186;4.450;2023-04-25T15:15:19;14.00;1.00
26053;DHT22;13826;51.186;4.450;2023-04-25T15:17:44;13.90;1.00
26053;DHT22;13826;51.186;4.450;2023-04-25T15:20:11;13.90;1.00
26053;DHT22;13826;51.186;4.450;2023-04-25T15:22:40;14.00;1.00
26053;DHT22;13826;51.186;4.450;2023-04-25T15:25:06;13.80;1.00
26053;DHT22;13826;51.186;4.450;2023-04-25T15:27:33;13.70;99.90
26053;DHT22;13826;51.186;4.450;2023-04-25T15:30:06;13.30;99.90
26053;DHT22;13826;51.186;4.450;2023-04-25T15:32:32;13.30;1.00
26053;DHT22;13826;51.186;4.450;2023-04-25T15:34:57;13.30;1.00
26053;DHT22;13826;51.186;4.450;2023-04-25T15:37:23;13.00;1.00
26053;DHT22;13826;51.186;4.450;2023-04-25T15:39:51;13.10;1.00
26053;DHT22;13826;51.186;4.450;2023-04-25T15:42:25;13.00;1.00